sensor_id;sensor_type;location;lat;lon;timestamp;P1;durP1;ratioP1;P2;durP2;ratioP2
12675;SDS011;63820;65.654;21.944;2023-07-13T00:01:14;6.97;;;6.10;;
12675;SDS011;63820;65.654;21.944;2023-07-13T00:04:00;9.07;;;6.60;;
12675;SDS011;63820;65.654;21.944;2023-07-13T00:06:46;9.20;;;7.67;;
12675;SDS011;63820;65.654;21.944;2023-07-13T00:09:30;10.23;;;8.13;;
12675;SDS011;63820;65.654;21.944;2023-07-13T00:12:37;9.10;;;7.50;;
12675;SDS011;63820;65.654;21.944;2023-07-13T00:15:24;7.37;;;6.60;;
12675;SDS011;63820;65.654;21.944;2023-07-13T00:18:09;7.77;;;6.40;;
12675;SDS011;63820;65.654;21.944;2023-07-13T00:20:53;7.83;;;7.00;;
12675;SDS011;63820;65.654;21.944;2023-07-13T00:23:38;8.30;;;7.03;;
12675;SDS011;63820;65.654;21.944;2023-07-13T00:26:24;7.23;;;6.33;;
12675;SDS011;63820;65.654;21.944;2023-07-13T00:29:08;9.33;;;7.03;;
12675;SDS011;63820;65.654;21.944;2023-07-13T00:31:52;8.93;;;6.70;;
12675;SDS011;63820;65.654;21.944;2023-07-13T00:34:36;10.63;;;7.70;;
12675;SDS011;63820;65.654;21.944;2023-07-13T00:37:21;8.47;;;6.97;;
12675;SDS011;63820;65.654;21.944;2023-07-13T00:40:06;8.60;;;7.57;;
12675;SDS011;63820;65.654;21.944;2023-07-13T00:42:52;8.90;;;8.00;;
12675;SDS011;63820;65.654;21.944;2023-07-13T00:46:23;10.13;;;8.57;;
12675;SDS011;63820;65.654;21.944;2023-07-13T00:49:15;9.93;;;8.87;;
12675;SDS011;63820;65.654;21.944;2023-07-13T00:52:04;10.60;;;9.10;;
12675;SDS011;63820;65.654;21.944;2023-07-13T00:54:50;11.57;;;9.20;;
12675;SDS011;63820;65.654;21.944;2023-07-13T00:57:35;11.67;;;9.50;;
12675;SDS011;63820;65.654;21.944;2023-07-13T01:00:19;14.97;;;9.83;;
12675;SDS011;63820;65.654;21.944;2023-07-13T01:03:05;12.03;;;9.83;;
12675;SDS011;63820;65.654;21.944;2023-07-13T01:05:50;13.20;;;10.30;;
12675;SDS011;63820;65.654;21.944;2023-07-13T01:08:35;11.70;;;10.03;;
12675;SDS011;63820;65.654;21.944;2023-07-13T01:11:19;12.20;;;9.80;;
12675;SDS011;63820;65.654;21.944;2023-07-13T01:14:05;10.83;;;9.07;;
12675;SDS011;63820;65.654;21.944;2023-07-13T01:16:50;12.23;;;9.37;;
12675;SDS011;63820;65.654;21.944;2023-07-13T01:19:43;10.87;;;8.90;;
12675;SDS011;63820;65.654;21.944;2023-07-13T01:22:29;10.07;;;8.33;;
12675;SDS011;63820;65.654;21.944;2023-07-13T01:25:15;9.43;;;8.23;;
12675;SDS011;63820;65.654;21.944;2023-07-13T01:27:59;12.57;;;8.13;;
12675;SDS011;63820;65.654;21.944;2023-07-13T01:30:43;11.07;;;8.70;;
12675;SDS011;63820;65.654;21.944;2023-07-13T01:33:29;9.47;;;8.00;;
12675;SDS011;63820;65.654;21.944;2023-07-13T01:36:13;9.47;;;8.30;;
12675;SDS011;63820;65.654;21.944;2023-07-13T01:38:57;8.30;;;7.50;;
12675;SDS011;63820;65.654;21.944;2023-07-13T01:41:42;9.10;;;7.47;;
12675;SDS011;63820;65.654;21.944;2023-07-13T01:44:26;7.80;;;6.90;;
12675;SDS011;63820;65.654;21.944;2023-07-13T01:47:11;9.10;;;7.43;;
12675;SDS011;63820;65.654;21.944;2023-07-13T01:49:55;8.37;;;7.33;;
12675;SDS011;63820;65.654;21.944;2023-07-13T01:52:39;8.67;;;7.20;;
12675;SDS011;63820;65.654;21.944;2023-07-13T01:55:23;7.80;;;6.80;;
12675;SDS011;63820;65.654;21.944;2023-07-13T01:58:08;9.00;;;6.50;;
12675;SDS011;63820;65.654;21.944;2023-07-13T02:00:51;8.50;;;7.20;;
12675;SDS011;63820;65.654;21.944;2023-07-13T02:03:36;9.10;;;6.77;;
12675;SDS011;63820;65.654;21.944;2023-07-13T02:06:20;7.67;;;6.23;;
12675;SDS011;63820;65.654;21.944;2023-07-13T02:09:04;8.73;;;7.10;;
12675;SDS011;63820;65.654;21.944;2023-07-13T02:11:48;7.37;;;6.23;;
12675;SDS011;63820;65.654;21.944;2023-07-13T02:14:32;6.23;;;5.63;;
12675;SDS011;63820;65.654;21.944;2023-07-13T02:17:16;9.37;;;6.73;;
12675;SDS011;63820;65.654;21.944;2023-07-13T02:20:00;6.70;;;6.00;;
12675;SDS011;63820;65.654;21.944;2023-07-13T02:22:45;7.00;;;6.03;;
12675;SDS011;63820;65.654;21.944;2023-07-13T02:25:28;5.60;;;5.10;;
12675;SDS011;63820;65.654;21.944;2023-07-13T02:28:12;6.47;;;5.80;;
12675;SDS011;63820;65.654;21.944;2023-07-13T02:31:03;7.03;;;5.90;;
12675;SDS011;63820;65.654;21.944;2023-07-13T02:33:49;6.30;;;5.63;;
12675;SDS011;63820;65.654;21.944;2023-07-13T02:36:34;6.13;;;5.53;;
12675;SDS011;63820;65.654;21.944;2023-07-13T02:39:18;6.57;;;5.97;;
12675;SDS011;63820;65.654;21.944;2023-07-13T02:42:02;6.37;;;5.47;;
12675;SDS011;63820;65.654;21.944;2023-07-13T02:44:47;5.90;;;5.13;;
12675;SDS011;63820;65.654;21.944;2023-07-13T02:47:33;8.80;;;5.57;;
12675;SDS011;63820;65.654;21.944;2023-07-13T02:50:17;6.43;;;5.27;;
12675;SDS011;63820;65.654;21.944;2023-07-13T02:53:02;6.00;;;5.13;;
12675;SDS011;63820;65.654;21.944;2023-07-13T02:55:46;5.83;;;5.30;;
12675;SDS011;63820;65.654;21.944;2023-07-13T02:58:31;7.30;;;5.00;;
12675;SDS011;63820;65.654;21.944;2023-07-13T03:01:15;6.00;;;5.40;;
12675;SDS011;63820;65.654;21.944;2023-07-13T03:04:02;6.40;;;5.07;;
12675;SDS011;63820;65.654;21.944;2023-07-13T03:06:47;6.63;;;5.13;;
12675;SDS011;63820;65.654;21.944;2023-07-13T03:09:32;5.67;;;5.07;;
12675;SDS011;63820;65.654;21.944;2023-07-13T03:12:17;5.27;;;4.77;;
12675;SDS011;63820;65.654;21.944;2023-07-13T03:15:01;6.13;;;5.00;;
12675;SDS011;63820;65.654;21.944;2023-07-13T03:17:45;6.07;;;5.20;;
12675;SDS011;63820;65.654;21.944;2023-07-13T03:20:32;5.37;;;4.87;;
12675;SDS011;63820;65.654;21.944;2023-07-13T03:23:17;5.60;;;5.00;;
12675;SDS011;63820;65.654;21.944;2023-07-13T03:26:07;6.47;;;4.47;;
12675;SDS011;63820;65.654;21.944;2023-07-13T03:28:54;5.40;;;4.90;;
12675;SDS011;63820;65.654;21.944;2023-07-13T03:31:38;6.23;;;5.00;;
12675;SDS011;63820;65.654;21.944;2023-07-13T03:34:22;5.93;;;4.97;;
12675;SDS011;63820;65.654;21.944;2023-07-13T03:37:06;5.07;;;4.60;;
12675;SDS011;63820;65.654;21.944;2023-07-13T03:39:50;5.80;;;4.40;;
12675;SDS011;63820;65.654;21.944;2023-07-13T03:42:35;5.33;;;4.83;;
12675;SDS011;63820;65.654;21.944;2023-07-13T03:45:19;5.77;;;5.17;;
12675;SDS011;63820;65.654;21.944;2023-07-13T03:48:03;5.47;;;4.80;;
12675;SDS011;63820;65.654;21.944;2023-07-13T03:50:48;5.30;;;4.80;;
12675;SDS011;63820;65.654;21.944;2023-07-13T03:53:39;5.20;;;4.60;;
12675;SDS011;63820;65.654;21.944;2023-07-13T03:56:27;4.83;;;4.30;;
12675;SDS011;63820;65.654;21.944;2023-07-13T03:59:12;4.73;;;4.30;;
12675;SDS011;63820;65.654;21.944;2023-07-13T04:01:56;4.70;;;4.27;;
12675;SDS011;63820;65.654;21.944;2023-07-13T04:04:40;5.30;;;4.57;;
12675;SDS011;63820;65.654;21.944;2023-07-13T04:07:24;4.90;;;4.40;;
12675;SDS011;63820;65.654;21.944;2023-07-13T04:10:08;4.67;;;4.17;;
12675;SDS011;63820;65.654;21.944;2023-07-13T04:12:53;4.40;;;4.00;;
12675;SDS011;63820;65.654;21.944;2023-07-13T04:15:38;4.37;;;3.97;;
12675;SDS011;63820;65.654;21.944;2023-07-13T04:18:23;4.57;;;4.17;;
12675;SDS011;63820;65.654;21.944;2023-07-13T04:21:07;4.50;;;4.10;;
12675;SDS011;63820;65.654;21.944;2023-07-13T04:23:52;4.17;;;3.77;;
12675;SDS011;63820;65.654;21.944;2023-07-13T04:26:37;4.90;;;4.30;;
12675;SDS011;63820;65.654;21.944;2023-07-13T04:29:22;4.50;;;4.10;;
12675;SDS011;63820;65.654;21.944;2023-07-13T04:32:06;5.07;;;3.93;;
12675;SDS011;63820;65.654;21.944;2023-07-13T04:34:50;4.57;;;4.17;;
12675;SDS011;63820;65.654;21.944;2023-07-13T04:37:36;4.57;;;4.17;;
12675;SDS011;63820;65.654;21.944;2023-07-13T04:40:20;4.23;;;3.90;;
12675;SDS011;63820;65.654;21.944;2023-07-13T04:43:04;5.30;;;4.37;;
12675;SDS011;63820;65.654;21.944;2023-07-13T04:45:48;4.20;;;3.80;;
12675;SDS011;63820;65.654;21.944;2023-07-13T04:48:34;6.30;;;4.17;;
12675;SDS011;63820;65.654;21.944;2023-07-13T04:51:19;4.57;;;4.10;;
12675;SDS011;63820;65.654;21.944;2023-07-13T04:54:03;5.13;;;3.93;;
12675;SDS011;63820;65.654;21.944;2023-07-13T04:56:49;5.43;;;4.07;;
12675;SDS011;63820;65.654;21.944;2023-07-13T04:59:33;4.63;;;4.07;;
12675;SDS011;63820;65.654;21.944;2023-07-13T05:02:17;4.87;;;4.10;;
12675;SDS011;63820;65.654;21.944;2023-07-13T05:05:02;4.30;;;3.90;;
12675;SDS011;63820;65.654;21.944;2023-07-13T05:07:47;4.27;;;3.87;;
12675;SDS011;63820;65.654;21.944;2023-07-13T05:10:31;4.10;;;3.53;;
12675;SDS011;63820;65.654;21.944;2023-07-13T05:13:15;5.87;;;4.17;;
12675;SDS011;63820;65.654;21.944;2023-07-13T05:16:02;5.23;;;4.03;;
12675;SDS011;63820;65.654;21.944;2023-07-13T05:18:48;4.03;;;3.63;;
12675;SDS011;63820;65.654;21.944;2023-07-13T05:21:32;4.10;;;3.70;;
12675;SDS011;63820;65.654;21.944;2023-07-13T05:24:16;4.67;;;3.93;;
12675;SDS011;63820;65.654;21.944;2023-07-13T05:27:00;5.67;;;4.07;;
12675;SDS011;63820;65.654;21.944;2023-07-13T05:29:44;5.20;;;4.17;;
12675;SDS011;63820;65.654;21.944;2023-07-13T05:32:28;4.73;;;3.80;;
12675;SDS011;63820;65.654;21.944;2023-07-13T05:35:12;4.30;;;3.90;;
12675;SDS011;63820;65.654;21.944;2023-07-13T05:37:56;4.10;;;3.80;;
12675;SDS011;63820;65.654;21.944;2023-07-13T05:40:42;3.97;;;3.67;;
12675;SDS011;63820;65.654;21.944;2023-07-13T05:43:30;4.22;;;3.83;;
12675;SDS011;63820;65.654;21.944;2023-07-13T05:46:14;4.45;;;3.22;;
12675;SDS011;63820;65.654;21.944;2023-07-13T05:48:58;3.80;;;3.50;;
12675;SDS011;63820;65.654;21.944;2023-07-13T05:51:42;4.30;;;3.33;;
12675;SDS011;63820;65.654;21.944;2023-07-13T05:54:26;3.60;;;3.30;;
12675;SDS011;63820;65.654;21.944;2023-07-13T05:57:10;4.00;;;3.38;;
12675;SDS011;63820;65.654;21.944;2023-07-13T05:59:54;4.65;;;3.47;;
12675;SDS011;63820;65.654;21.944;2023-07-13T06:02:38;3.80;;;3.50;;
12675;SDS011;63820;65.654;21.944;2023-07-13T06:05:22;3.83;;;3.45;;
12675;SDS011;63820;65.654;21.944;2023-07-13T06:08:06;3.95;;;3.65;;
12675;SDS011;63820;65.654;21.944;2023-07-13T06:10:51;3.75;;;3.40;;
12675;SDS011;63820;65.654;21.944;2023-07-13T06:13:35;5.15;;;3.58;;
12675;SDS011;63820;65.654;21.944;2023-07-13T06:16:19;4.85;;;3.60;;
12675;SDS011;63820;65.654;21.944;2023-07-13T06:19:04;4.55;;;3.75;;
12675;SDS011;63820;65.654;21.944;2023-07-13T06:21:48;4.03;;;3.65;;
12675;SDS011;63820;65.654;21.944;2023-07-13T06:24:32;3.95;;;3.47;;
12675;SDS011;63820;65.654;21.944;2023-07-13T06:27:16;4.05;;;3.67;;
12675;SDS011;63820;65.654;21.944;2023-07-13T06:30:00;3.75;;;3.45;;
12675;SDS011;63820;65.654;21.944;2023-07-13T06:32:45;4.07;;;3.72;;
12675;SDS011;63820;65.654;21.944;2023-07-13T06:35:29;4.03;;;3.30;;
12675;SDS011;63820;65.654;21.944;2023-07-13T06:38:13;4.18;;;3.88;;
12675;SDS011;63820;65.654;21.944;2023-07-13T06:40:57;3.70;;;3.40;;
12675;SDS011;63820;65.654;21.944;2023-07-13T06:43:41;3.60;;;3.30;;
12675;SDS011;63820;65.654;21.944;2023-07-13T06:46:25;3.28;;;2.97;;
12675;SDS011;63820;65.654;21.944;2023-07-13T06:49:12;3.28;;;2.97;;
12675;SDS011;63820;65.654;21.944;2023-07-13T06:51:56;3.72;;;3.42;;
12675;SDS011;63820;65.654;21.944;2023-07-13T06:54:39;4.38;;;3.33;;
12675;SDS011;63820;65.654;21.944;2023-07-13T06:57:23;3.47;;;3.17;;
12675;SDS011;63820;65.654;21.944;2023-07-13T07:00:07;3.38;;;3.13;;
12675;SDS011;63820;65.654;21.944;2023-07-13T07:02:54;3.25;;;2.67;;
12675;SDS011;63820;65.654;21.944;2023-07-13T07:05:37;3.13;;;2.65;;
12675;SDS011;63820;65.654;21.944;2023-07-13T07:08:21;2.60;;;2.40;;
12675;SDS011;63820;65.654;21.944;2023-07-13T07:11:08;2.40;;;2.20;;
12675;SDS011;63820;65.654;21.944;2023-07-13T07:13:53;2.83;;;2.55;;
12675;SDS011;63820;65.654;21.944;2023-07-13T07:16:38;2.67;;;2.47;;
12675;SDS011;63820;65.654;21.944;2023-07-13T07:19:21;2.20;;;2.10;;
12675;SDS011;63820;65.654;21.944;2023-07-13T07:22:06;2.10;;;2.00;;
12675;SDS011;63820;65.654;21.944;2023-07-13T07:24:50;2.88;;;2.60;;
12675;SDS011;63820;65.654;21.944;2023-07-13T07:27:34;2.50;;;2.30;;
12675;SDS011;63820;65.654;21.944;2023-07-13T07:30:18;6.90;;;3.03;;
12675;SDS011;63820;65.654;21.944;2023-07-13T07:33:02;6.45;;;2.85;;
12675;SDS011;63820;65.654;21.944;2023-07-13T07:35:47;3.78;;;2.67;;
12675;SDS011;63820;65.654;21.944;2023-07-13T07:38:31;3.42;;;2.50;;
12675;SDS011;63820;65.654;21.944;2023-07-13T07:41:15;2.58;;;2.38;;
12675;SDS011;63820;65.654;21.944;2023-07-13T07:43:59;2.35;;;2.15;;
12675;SDS011;63820;65.654;21.944;2023-07-13T07:46:42;2.70;;;2.50;;
12675;SDS011;63820;65.654;21.944;2023-07-13T07:49:27;3.63;;;2.58;;
12675;SDS011;63820;65.654;21.944;2023-07-13T07:52:11;3.08;;;2.78;;
12675;SDS011;63820;65.654;21.944;2023-07-13T07:54:55;3.30;;;3.00;;
12675;SDS011;63820;65.654;21.944;2023-07-13T07:57:39;2.67;;;2.47;;
12675;SDS011;63820;65.654;21.944;2023-07-13T08:00:23;3.28;;;2.92;;
12675;SDS011;63820;65.654;21.944;2023-07-13T08:03:07;3.08;;;2.83;;
12675;SDS011;63820;65.654;21.944;2023-07-13T08:05:54;3.50;;;3.20;;
12675;SDS011;63820;65.654;21.944;2023-07-13T08:08:38;3.22;;;3.03;;
12675;SDS011;63820;65.654;21.944;2023-07-13T08:11:22;3.33;;;3.13;;
12675;SDS011;63820;65.654;21.944;2023-07-13T08:14:06;2.95;;;2.65;;
12675;SDS011;63820;65.654;21.944;2023-07-13T08:16:50;3.03;;;2.83;;
12675;SDS011;63820;65.654;21.944;2023-07-13T08:19:34;3.35;;;2.90;;
12675;SDS011;63820;65.654;21.944;2023-07-13T08:22:18;5.05;;;3.40;;
12675;SDS011;63820;65.654;21.944;2023-07-13T08:25:02;3.65;;;3.17;;
12675;SDS011;63820;65.654;21.944;2023-07-13T08:27:47;3.63;;;3.30;;
12675;SDS011;63820;65.654;21.944;2023-07-13T08:30:31;3.58;;;3.28;;
12675;SDS011;63820;65.654;21.944;2023-07-13T08:33:15;3.55;;;3.25;;
12675;SDS011;63820;65.654;21.944;2023-07-13T08:36:00;3.55;;;3.25;;
12675;SDS011;63820;65.654;21.944;2023-07-13T08:38:45;3.42;;;3.22;;
12675;SDS011;63820;65.654;21.944;2023-07-13T08:41:29;4.10;;;3.67;;
12675;SDS011;63820;65.654;21.944;2023-07-13T08:44:19;4.18;;;3.78;;
12675;SDS011;63820;65.654;21.944;2023-07-13T08:47:14;4.55;;;4.15;;
12675;SDS011;63820;65.654;21.944;2023-07-13T08:49:59;4.43;;;4.03;;
12675;SDS011;63820;65.654;21.944;2023-07-13T08:52:45;5.85;;;4.88;;
12675;SDS011;63820;65.654;21.944;2023-07-13T08:55:31;6.00;;;5.50;;
12675;SDS011;63820;65.654;21.944;2023-07-13T08:58:21;7.63;;;4.90;;
12675;SDS011;63820;65.654;21.944;2023-07-13T09:04:23;4.90;;;4.50;;
12675;SDS011;63820;65.654;21.944;2023-07-13T09:07:33;4.25;;;3.88;;
12675;SDS011;63820;65.654;21.944;2023-07-13T09:10:42;4.88;;;3.58;;
12675;SDS011;63820;65.654;21.944;2023-07-13T09:16:46;2.95;;;2.35;;
12675;SDS011;63820;65.654;21.944;2023-07-13T09:19:32;3.10;;;2.30;;
12675;SDS011;63820;65.654;21.944;2023-07-13T09:22:19;2.78;;;2.50;;
12675;SDS011;63820;65.654;21.944;2023-07-13T09:25:39;5.40;;;2.27;;
12675;SDS011;63820;65.654;21.944;2023-07-13T09:28:29;2.83;;;2.50;;
12675;SDS011;63820;65.654;21.944;2023-07-13T09:31:28;2.70;;;2.20;;
12675;SDS011;63820;65.654;21.944;2023-07-13T09:34:25;3.45;;;2.45;;
12675;SDS011;63820;65.654;21.944;2023-07-13T09:37:10;2.70;;;2.22;;
12675;SDS011;63820;65.654;21.944;2023-07-13T09:39:54;3.05;;;2.20;;
12675;SDS011;63820;65.654;21.944;2023-07-13T09:42:41;2.45;;;2.10;;
12675;SDS011;63820;65.654;21.944;2023-07-13T09:45:28;2.78;;;2.35;;
12675;SDS011;63820;65.654;21.944;2023-07-13T09:48:14;4.47;;;2.25;;
12675;SDS011;63820;65.654;21.944;2023-07-13T09:51:03;3.60;;;2.50;;
12675;SDS011;63820;65.654;21.944;2023-07-13T09:53:57;2.53;;;2.30;;
12675;SDS011;63820;65.654;21.944;2023-07-13T09:56:41;2.35;;;2.08;;
12675;SDS011;63820;65.654;21.944;2023-07-13T09:59:32;2.80;;;2.50;;
12675;SDS011;63820;65.654;21.944;2023-07-13T10:05:17;2.63;;;2.42;;
12675;SDS011;63820;65.654;21.944;2023-07-13T10:08:01;3.83;;;2.50;;
12675;SDS011;63820;65.654;21.944;2023-07-13T10:10:45;3.22;;;2.40;;
12675;SDS011;63820;65.654;21.944;2023-07-13T10:13:32;2.63;;;2.30;;
12675;SDS011;63820;65.654;21.944;2023-07-13T10:16:20;2.50;;;2.30;;
12675;SDS011;63820;65.654;21.944;2023-07-13T10:21:57;2.22;;;2.00;;
12675;SDS011;63820;65.654;21.944;2023-07-13T10:24:47;2.30;;;2.10;;
12675;SDS011;63820;65.654;21.944;2023-07-13T10:27:35;2.40;;;2.20;;
12675;SDS011;63820;65.654;21.944;2023-07-13T10:30:21;2.27;;;2.07;;
12675;SDS011;63820;65.654;21.944;2023-07-13T10:33:13;2.83;;;2.47;;
12675;SDS011;63820;65.654;21.944;2023-07-13T10:36:01;3.40;;;2.73;;
12675;SDS011;63820;65.654;21.944;2023-07-13T10:39:13;2.60;;;2.40;;
12675;SDS011;63820;65.654;21.944;2023-07-13T10:42:03;2.43;;;2.23;;
12675;SDS011;63820;65.654;21.944;2023-07-13T10:44:50;3.33;;;2.17;;
12675;SDS011;63820;65.654;21.944;2023-07-13T10:47:35;2.83;;;2.40;;
12675;SDS011;63820;65.654;21.944;2023-07-13T10:50:22;3.33;;;2.40;;
12675;SDS011;63820;65.654;21.944;2023-07-13T10:53:19;2.93;;;2.67;;
12675;SDS011;63820;65.654;21.944;2023-07-13T10:56:35;2.83;;;2.30;;
12675;SDS011;63820;65.654;21.944;2023-07-13T10:59:26;3.20;;;2.70;;
12675;SDS011;63820;65.654;21.944;2023-07-13T11:02:15;2.60;;;2.40;;
12675;SDS011;63820;65.654;21.944;2023-07-13T11:08:51;3.53;;;2.80;;
12675;SDS011;63820;65.654;21.944;2023-07-13T11:11:37;2.85;;;2.30;;
12675;SDS011;63820;65.654;21.944;2023-07-13T11:14:26;3.67;;;2.65;;
12675;SDS011;63820;65.654;21.944;2023-07-13T11:20:46;3.13;;;2.60;;
12675;SDS011;63820;65.654;21.944;2023-07-13T11:23:32;3.00;;;2.40;;
12675;SDS011;63820;65.654;21.944;2023-07-13T11:26:41;3.23;;;2.60;;
12675;SDS011;63820;65.654;21.944;2023-07-13T11:32:23;3.10;;;2.80;;
12675;SDS011;63820;65.654;21.944;2023-07-13T11:35:22;2.60;;;2.40;;
12675;SDS011;63820;65.654;21.944;2023-07-13T11:38:20;3.13;;;2.70;;
12675;SDS011;63820;65.654;21.944;2023-07-13T11:41:28;2.97;;;2.27;;
12675;SDS011;63820;65.654;21.944;2023-07-13T11:44:17;3.20;;;2.47;;
12675;SDS011;63820;65.654;21.944;2023-07-13T11:47:14;2.80;;;2.50;;
12675;SDS011;63820;65.654;21.944;2023-07-13T11:50:05;3.43;;;2.57;;
12675;SDS011;63820;65.654;21.944;2023-07-13T11:52:50;5.50;;;3.20;;
12675;SDS011;63820;65.654;21.944;2023-07-13T11:55:37;5.60;;;4.23;;
12675;SDS011;63820;65.654;21.944;2023-07-13T11:58:23;4.17;;;2.37;;
12675;SDS011;63820;65.654;21.944;2023-07-13T12:01:15;3.63;;;3.00;;
12675;SDS011;63820;65.654;21.944;2023-07-13T12:04:04;5.22;;;2.85;;
12675;SDS011;63820;65.654;21.944;2023-07-13T12:07:14;4.43;;;2.95;;
12675;SDS011;63820;65.654;21.944;2023-07-13T12:10:13;3.33;;;2.28;;
12675;SDS011;63820;65.654;21.944;2023-07-13T12:13:05;2.90;;;2.60;;
12675;SDS011;63820;65.654;21.944;2023-07-13T12:15:52;2.73;;;2.23;;
12675;SDS011;63820;65.654;21.944;2023-07-13T12:18:37;3.53;;;2.30;;
12675;SDS011;63820;65.654;21.944;2023-07-13T12:21:26;2.90;;;2.23;;
12675;SDS011;63820;65.654;21.944;2023-07-13T12:24:18;3.67;;;2.50;;
12675;SDS011;63820;65.654;21.944;2023-07-13T12:27:03;2.63;;;2.13;;
12675;SDS011;63820;65.654;21.944;2023-07-13T12:29:52;3.88;;;2.35;;
12675;SDS011;63820;65.654;21.944;2023-07-13T12:32:54;2.73;;;2.10;;
12675;SDS011;63820;65.654;21.944;2023-07-13T12:35:47;2.47;;;2.10;;
12675;SDS011;63820;65.654;21.944;2023-07-13T12:38:33;2.90;;;1.90;;
12675;SDS011;63820;65.654;21.944;2023-07-13T12:41:17;2.85;;;2.20;;
12675;SDS011;63820;65.654;21.944;2023-07-13T12:44:01;2.37;;;2.00;;
12675;SDS011;63820;65.654;21.944;2023-07-13T12:46:53;2.20;;;2.00;;
12675;SDS011;63820;65.654;21.944;2023-07-13T12:49:58;2.67;;;2.23;;
12675;SDS011;63820;65.654;21.944;2023-07-13T12:52:49;2.45;;;2.00;;
12675;SDS011;63820;65.654;21.944;2023-07-13T12:55:46;4.33;;;2.23;;
12675;SDS011;63820;65.654;21.944;2023-07-13T12:58:36;2.40;;;2.17;;
12675;SDS011;63820;65.654;21.944;2023-07-13T13:01:22;3.80;;;2.50;;
12675;SDS011;63820;65.654;21.944;2023-07-13T13:04:11;2.83;;;2.10;;
12675;SDS011;63820;65.654;21.944;2023-07-13T13:07:00;3.80;;;2.40;;
12675;SDS011;63820;65.654;21.944;2023-07-13T13:09:47;2.90;;;2.20;;
12675;SDS011;63820;65.654;21.944;2023-07-13T13:12:31;2.37;;;2.00;;
12675;SDS011;63820;65.654;21.944;2023-07-13T13:15:16;3.30;;;2.13;;
12675;SDS011;63820;65.654;21.944;2023-07-13T13:18:00;3.03;;;2.17;;
12675;SDS011;63820;65.654;21.944;2023-07-13T13:20:44;2.53;;;2.13;;
12675;SDS011;63820;65.654;21.944;2023-07-13T13:23:29;4.10;;;2.30;;
12675;SDS011;63820;65.654;21.944;2023-07-13T13:26:14;2.57;;;2.37;;
12675;SDS011;63820;65.654;21.944;2023-07-13T13:29:04;2.33;;;2.13;;
12675;SDS011;63820;65.654;21.944;2023-07-13T13:31:57;3.13;;;2.30;;
12675;SDS011;63820;65.654;21.944;2023-07-13T13:34:41;2.70;;;2.13;;
12675;SDS011;63820;65.654;21.944;2023-07-13T13:37:26;2.43;;;1.93;;
12675;SDS011;63820;65.654;21.944;2023-07-13T13:40:21;2.83;;;2.10;;
12675;SDS011;63820;65.654;21.944;2023-07-13T13:43:17;2.20;;;1.63;;
12675;SDS011;63820;65.654;21.944;2023-07-13T13:46:02;2.20;;;2.00;;
12675;SDS011;63820;65.654;21.944;2023-07-13T13:49:00;2.47;;;1.93;;
12675;SDS011;63820;65.654;21.944;2023-07-13T13:51:45;4.13;;;2.00;;
12675;SDS011;63820;65.654;21.944;2023-07-13T13:54:30;3.03;;;2.00;;
12675;SDS011;63820;65.654;21.944;2023-07-13T13:57:14;2.55;;;2.10;;
12675;SDS011;63820;65.654;21.944;2023-07-13T13:59:58;2.63;;;2.00;;
12675;SDS011;63820;65.654;21.944;2023-07-13T14:02:46;3.03;;;2.03;;
12675;SDS011;63820;65.654;21.944;2023-07-13T14:05:34;2.60;;;2.40;;
12675;SDS011;63820;65.654;21.944;2023-07-13T14:08:19;3.37;;;2.20;;
12675;SDS011;63820;65.654;21.944;2023-07-13T14:11:04;2.90;;;2.40;;
12675;SDS011;63820;65.654;21.944;2023-07-13T14:13:54;2.50;;;2.30;;
12675;SDS011;63820;65.654;21.944;2023-07-13T14:16:40;3.60;;;2.90;;
12675;SDS011;63820;65.654;21.944;2023-07-13T14:19:26;4.20;;;3.00;;
12675;SDS011;63820;65.654;21.944;2023-07-13T14:22:11;2.77;;;2.27;;
12675;SDS011;63820;65.654;21.944;2023-07-13T14:24:55;2.30;;;2.10;;
12675;SDS011;63820;65.654;21.944;2023-07-13T14:27:41;3.33;;;2.60;;
12675;SDS011;63820;65.654;21.944;2023-07-13T14:30:26;3.00;;;2.70;;
12675;SDS011;63820;65.654;21.944;2023-07-13T14:33:10;3.30;;;2.93;;
12675;SDS011;63820;65.654;21.944;2023-07-13T14:35:55;3.50;;;2.70;;
12675;SDS011;63820;65.654;21.944;2023-07-13T14:38:40;3.07;;;2.40;;
12675;SDS011;63820;65.654;21.944;2023-07-13T14:41:24;2.57;;;2.37;;
12675;SDS011;63820;65.654;21.944;2023-07-13T14:44:12;2.83;;;2.27;;
12675;SDS011;63820;65.654;21.944;2023-07-13T14:46:59;2.70;;;2.40;;
12675;SDS011;63820;65.654;21.944;2023-07-13T14:49:50;2.23;;;2.03;;
12675;SDS011;63820;65.654;21.944;2023-07-13T14:52:34;2.27;;;2.00;;
12675;SDS011;63820;65.654;21.944;2023-07-13T14:55:18;1.90;;;1.80;;
12675;SDS011;63820;65.654;21.944;2023-07-13T14:58:03;2.30;;;1.77;;
12675;SDS011;63820;65.654;21.944;2023-07-13T15:00:47;1.83;;;1.73;;
12675;SDS011;63820;65.654;21.944;2023-07-13T15:03:32;4.03;;;1.80;;
12675;SDS011;63820;65.654;21.944;2023-07-13T15:06:17;2.37;;;1.90;;
12675;SDS011;63820;65.654;21.944;2023-07-13T15:09:02;2.67;;;1.60;;
12675;SDS011;63820;65.654;21.944;2023-07-13T15:11:47;1.63;;;1.53;;
12675;SDS011;63820;65.654;21.944;2023-07-13T15:14:31;1.20;;;1.10;;
12675;SDS011;63820;65.654;21.944;2023-07-13T15:17:58;1.50;;;1.40;;
12675;SDS011;63820;65.654;21.944;2023-07-13T15:23:13;2.00;;;1.53;;
12675;SDS011;63820;65.654;21.944;2023-07-13T15:25:58;3.13;;;1.60;;
12675;SDS011;63820;65.654;21.944;2023-07-13T15:28:42;1.90;;;1.30;;
12675;SDS011;63820;65.654;21.944;2023-07-13T15:31:28;1.63;;;1.30;;
12675;SDS011;63820;65.654;21.944;2023-07-13T15:34:14;1.80;;;1.30;;
12675;SDS011;63820;65.654;21.944;2023-07-13T15:37:00;2.63;;;1.40;;
12675;SDS011;63820;65.654;21.944;2023-07-13T15:39:45;1.87;;;1.50;;
12675;SDS011;63820;65.654;21.944;2023-07-13T15:42:29;1.83;;;1.30;;
12675;SDS011;63820;65.654;21.944;2023-07-13T15:45:14;2.17;;;1.40;;
12675;SDS011;63820;65.654;21.944;2023-07-13T15:48:24;1.60;;;1.20;;
12675;SDS011;63820;65.654;21.944;2023-07-13T15:51:13;1.43;;;1.30;;
12675;SDS011;63820;65.654;21.944;2023-07-13T15:54:03;1.43;;;1.33;;
12675;SDS011;63820;65.654;21.944;2023-07-13T15:56:51;1.73;;;1.20;;
12675;SDS011;63820;65.654;21.944;2023-07-13T15:59:36;1.30;;;1.20;;
12675;SDS011;63820;65.654;21.944;2023-07-13T16:02:20;1.93;;;1.30;;
12675;SDS011;63820;65.654;21.944;2023-07-13T16:05:04;1.37;;;1.10;;
12675;SDS011;63820;65.654;21.944;2023-07-13T16:07:49;2.77;;;1.20;;
12675;SDS011;63820;65.654;21.944;2023-07-13T16:10:37;1.60;;;1.20;;
12675;SDS011;63820;65.654;21.944;2023-07-13T16:13:24;1.70;;;1.20;;
12675;SDS011;63820;65.654;21.944;2023-07-13T16:16:10;1.17;;;1.03;;
12675;SDS011;63820;65.654;21.944;2023-07-13T16:18:55;1.40;;;1.10;;
12675;SDS011;63820;65.654;21.944;2023-07-13T16:21:46;1.70;;;1.27;;
12675;SDS011;63820;65.654;21.944;2023-07-13T16:24:34;1.93;;;1.17;;
12675;SDS011;63820;65.654;21.944;2023-07-13T16:27:18;2.07;;;1.50;;
12675;SDS011;63820;65.654;21.944;2023-07-13T16:30:11;1.57;;;1.23;;
12675;SDS011;63820;65.654;21.944;2023-07-13T16:33:06;1.33;;;1.00;;
12675;SDS011;63820;65.654;21.944;2023-07-13T16:35:50;1.40;;;1.10;;
12675;SDS011;63820;65.654;21.944;2023-07-13T16:38:37;2.93;;;1.80;;
12675;SDS011;63820;65.654;21.944;2023-07-13T16:41:22;2.00;;;1.27;;
12675;SDS011;63820;65.654;21.944;2023-07-13T16:44:16;1.97;;;1.13;;
12675;SDS011;63820;65.654;21.944;2023-07-13T16:47:04;1.70;;;1.10;;
12675;SDS011;63820;65.654;21.944;2023-07-13T16:49:55;2.20;;;1.20;;
12675;SDS011;63820;65.654;21.944;2023-07-13T16:52:41;1.20;;;1.00;;
12675;SDS011;63820;65.654;21.944;2023-07-13T16:55:26;1.70;;;1.30;;